createdAt,value
2022-11-17T00:04:10.618Z,2.80
2022-11-17T00:09:27.402Z,2.28
2022-11-17T00:12:20.553Z,2.80
2022-11-17T00:15:05.991Z,2.63
2022-11-17T00:17:37.355Z,2.40
2022-11-17T00:20:44.015Z,2.80
2022-11-17T00:23:10.961Z,2.33
2022-11-17T00:25:41.137Z,2.63
2022-11-17T00:28:25.641Z,2.55
2022-11-17T00:31:17.061Z,2.45
2022-11-17T00:34:02.798Z,2.92
2022-11-17T00:36:32.670Z,2.45
2022-11-17T00:38:59.505Z,2.67
2022-11-17T00:41:28.749Z,2.50
2022-11-17T00:43:55.683Z,2.25
2022-11-17T00:46:25.626Z,2.53
2022-11-17T00:48:52.506Z,2.50
2022-11-17T00:51:20.080Z,2.53
2022-11-17T00:53:48.557Z,2.45
2022-11-17T00:56:15.740Z,2.03
2022-11-17T00:58:42.791Z,2.40
2022-11-17T01:01:10.166Z,2.45
2022-11-17T01:03:37.378Z,2.30
2022-11-17T01:06:16.093Z,2.25
2022-11-17T01:11:15.392Z,2.55
2022-11-17T01:13:43.707Z,2.63
2022-11-17T01:16:15.881Z,2.80
2022-11-17T01:21:25.422Z,2.13
2022-11-17T01:23:54.629Z,2.00
2022-11-17T01:26:27.291Z,2.30
2022-11-17T01:28:54.358Z,2.38
2022-11-17T01:31:24.251Z,2.17
2022-11-17T01:34:14.113Z,2.22
2022-11-17T01:37:01.255Z,1.90
2022-11-17T01:39:29.705Z,2.20
2022-11-17T01:41:59.639Z,2.03
2022-11-17T01:44:53.399Z,2.33
2022-11-17T01:47:40.614Z,2.10
2022-11-17T01:50:16.551Z,1.95
2022-11-17T01:52:44.550Z,1.80
2022-11-17T01:55:12.105Z,1.92
2022-11-17T01:57:49.770Z,1.85
2022-11-17T02:00:17.120Z,2.08
2022-11-17T02:02:51.399Z,1.92
2022-11-17T02:05:43.396Z,1.90
2022-11-17T02:12:32.290Z,1.90
2022-11-17T02:14:59.934Z,1.88
2022-11-17T02:17:39.425Z,2.15
2022-11-17T02:20:06.578Z,2.05
2022-11-17T02:22:51.900Z,2.00
2022-11-17T02:25:33.749Z,1.83
2022-11-17T02:28:03.498Z,2.25
2022-11-17T02:30:59.356Z,1.98
2022-11-17T02:33:44.938Z,2.03
2022-11-17T02:36:32.070Z,2.10
2022-11-17T02:39:09.136Z,1.75
2022-11-17T02:42:05.381Z,1.95
2022-11-17T02:44:39.998Z,1.73
2022-11-17T02:47:19.741Z,1.77
2022-11-17T02:49:50.715Z,1.98
2022-11-17T02:52:25.154Z,1.70
2022-11-17T02:54:51.888Z,1.88
2022-11-17T02:57:36.326Z,1.70
2022-11-17T03:00:12.856Z,1.80
2022-11-17T03:03:16.822Z,2.05
2022-11-17T03:06:07.841Z,1.60
2022-11-17T03:09:04.710Z,2.08
2022-11-17T03:12:07.804Z,1.70
2022-11-17T03:14:50.914Z,2.08
2022-11-17T03:17:24.961Z,1.77
2022-11-17T03:20:12.677Z,1.90
2022-11-17T03:23:06.464Z,1.90
2022-11-17T03:25:37.533Z,1.85
2022-11-17T03:28:07.806Z,1.85
2022-11-17T03:30:38.230Z,1.70
2022-11-17T03:33:10.972Z,1.60
2022-11-17T03:35:43.019Z,1.70
2022-11-17T03:38:15.013Z,1.80
2022-11-17T03:40:54.600Z,1.70
2022-11-17T03:43:21.872Z,1.88
2022-11-17T03:45:51.382Z,1.52
2022-11-17T03:48:24.896Z,1.70
2022-11-17T03:51:11.944Z,2.05
2022-11-17T03:53:39.003Z,1.85
2022-11-17T03:56:27.078Z,1.92
2022-11-17T03:59:21.805Z,1.67
2022-11-17T04:01:48.729Z,1.90
2022-11-17T04:04:20.611Z,1.80
2022-11-17T04:06:56.407Z,1.85
2022-11-17T04:09:26.154Z,1.42
2022-11-17T04:12:11.516Z,1.85
2022-11-17T04:15:13.535Z,1.83
2022-11-17T04:17:40.366Z,1.88
2022-11-17T04:20:07.961Z,1.85
2022-11-17T04:22:34.731Z,1.60
2022-11-17T04:25:01.602Z,1.55
2022-11-17T04:27:46.778Z,1.58
2022-11-17T04:30:14.983Z,1.55
2022-11-17T04:32:41.824Z,1.52
2022-11-17T04:35:08.739Z,1.75
2022-11-17T04:37:35.454Z,1.70
2022-11-17T04:40:02.214Z,1.60
2022-11-17T04:42:44.034Z,1.70
2022-11-17T04:45:10.707Z,1.88
2022-11-17T04:47:37.378Z,1.90
2022-11-17T04:50:04.313Z,2.33
2022-11-17T04:52:31.023Z,1.70
2022-11-17T04:54:57.694Z,1.98
2022-11-17T04:57:24.389Z,1.63
2022-11-17T04:59:51.049Z,1.67
2022-11-17T05:02:17.830Z,1.88
2022-11-17T05:04:56.592Z,1.55
2022-11-17T05:08:13.882Z,1.85
2022-11-17T05:10:15.041Z,1.88
2022-11-17T05:13:00.391Z,1.73
2022-11-17T05:15:45.969Z,1.67
2022-11-17T05:18:12.964Z,1.73
2022-11-17T05:20:39.731Z,1.83
2022-11-17T05:23:24.978Z,1.73
2022-11-17T05:25:53.902Z,1.88
2022-11-17T05:28:20.563Z,1.50
2022-11-17T05:30:47.616Z,1.80
2022-11-17T05:33:20.006Z,1.70
2022-11-17T05:35:46.765Z,1.77
2022-11-17T05:38:13.466Z,1.50
2022-11-17T05:40:40.377Z,1.60
2022-11-17T05:43:07.324Z,1.73
2022-11-17T05:45:34.181Z,1.75
2022-11-17T05:48:00.944Z,1.77
2022-11-17T05:50:27.711Z,1.88
2022-11-17T05:52:54.441Z,1.70
2022-11-17T05:55:21.282Z,1.77
2022-11-17T05:58:54.360Z,1.48
2022-11-17T06:01:22.587Z,1.70
2022-11-17T06:03:56.327Z,1.50
2022-11-17T06:09:33.843Z,1.80
2022-11-17T06:12:05.563Z,2.10
2022-11-17T06:14:33.330Z,1.83
2022-11-17T06:17:23.588Z,1.80
2022-11-17T06:19:57.833Z,1.83
2022-11-17T06:22:26.614Z,2.08
2022-11-17T06:24:57.092Z,1.60
2022-11-17T06:27:25.766Z,1.55
2022-11-17T06:29:53.906Z,1.70
2022-11-17T06:32:20.885Z,1.63
2022-11-17T06:35:23.459Z,1.80
2022-11-17T06:37:53.400Z,1.73
2022-11-17T06:40:20.189Z,1.58
2022-11-17T06:46:31.800Z,1.83
2022-11-17T06:48:58.661Z,1.70
2022-11-17T06:51:25.397Z,1.45
2022-11-17T06:53:52.229Z,1.58
2022-11-17T06:56:19.139Z,1.70
2022-11-17T06:58:45.899Z,1.88
2022-11-17T07:01:14.897Z,1.60
2022-11-17T07:07:06.307Z,1.90
2022-11-17T07:09:33.141Z,1.83
2022-11-17T07:12:00.045Z,1.60
2022-11-17T07:14:26.803Z,1.67
2022-11-17T07:17:10.298Z,1.67
2022-11-17T07:19:37.142Z,1.83
2022-11-17T07:22:04.607Z,1.63
2022-11-17T07:24:31.499Z,1.80
2022-11-17T07:27:13.580Z,1.60
2022-11-17T07:29:41.153Z,1.98
2022-11-17T07:32:08.906Z,1.70
2022-11-17T07:34:36.122Z,1.63
2022-11-17T07:37:02.892Z,1.40
2022-11-17T07:39:29.720Z,2.00
2022-11-17T07:41:56.687Z,1.92
2022-11-17T07:44:23.538Z,1.80
2022-11-17T07:46:50.434Z,1.85
2022-11-17T07:49:17.240Z,1.70
2022-11-17T07:51:44.027Z,2.25
2022-11-17T07:58:01.010Z,1.75
2022-11-17T08:00:30.437Z,1.83
2022-11-17T08:09:14.378Z,1.50
2022-11-17T08:11:41.211Z,2.00
2022-11-17T08:14:08.177Z,1.50
2022-11-17T08:16:35.129Z,1.73
2022-11-17T08:22:17.085Z,1.30
2022-11-17T08:24:44.010Z,1.75
2022-11-17T08:27:28.947Z,1.63
2022-11-17T08:29:58.915Z,1.67
2022-11-17T08:32:26.403Z,1.50
2022-11-17T08:34:53.612Z,1.73
2022-11-17T08:40:13.683Z,2.30
2022-11-17T08:42:47.098Z,1.70
2022-11-17T08:45:26.335Z,1.38
2022-11-17T08:48:01.605Z,1.58
2022-11-17T08:50:31.384Z,1.77
2022-11-17T08:52:58.268Z,1.45
2022-11-17T09:03:08.794Z,1.70
2022-11-17T09:05:47.110Z,1.35
2022-11-17T09:11:36.116Z,1.60
2022-11-17T09:14:03.122Z,2.17
2022-11-17T09:16:30.181Z,1.60
2022-11-17T09:19:34.766Z,1.75
2022-11-17T09:22:01.733Z,1.38
2022-11-17T09:24:28.655Z,1.60
2022-11-17T09:26:57.566Z,1.63
2022-11-17T09:29:24.512Z,1.30
2022-11-17T09:38:01.456Z,1.60
2022-11-17T09:40:34.680Z,1.67
2022-11-17T09:43:25.386Z,1.75
2022-11-17T09:45:53.921Z,1.65
2022-11-17T09:51:39.488Z,1.70
2022-11-17T09:54:35.250Z,1.60
2022-11-17T09:57:22.334Z,1.60
2022-11-17T10:03:28.455Z,1.60
2022-11-17T10:09:25.378Z,1.48
2022-11-17T10:11:54.527Z,1.60
2022-11-17T10:14:22.586Z,1.92
2022-11-17T10:16:58.033Z,1.48
2022-11-17T10:19:30.973Z,1.52
2022-11-17T10:22:04.429Z,1.70
2022-11-17T10:24:50.672Z,1.83
2022-11-17T10:27:17.456Z,2.13
2022-11-17T10:29:58.910Z,2.00
2022-11-17T10:32:50.098Z,1.58
2022-11-17T10:35:39.103Z,1.60
2022-11-17T10:41:05.957Z,2.53
2022-11-17T10:43:46.638Z,1.63
2022-11-17T10:46:25.544Z,2.40
2022-11-17T10:52:09.527Z,1.98
2022-11-17T10:54:36.640Z,1.60
2022-11-17T10:57:09.223Z,1.60
2022-11-17T11:02:43.030Z,1.92
2022-11-17T11:05:23.009Z,1.92
2022-11-17T11:08:21.526Z,1.60
2022-11-17T11:10:51.638Z,1.65
2022-11-17T11:16:13.050Z,1.83
2022-11-17T11:18:40.042Z,2.10
2022-11-17T11:21:44.367Z,2.13
2022-11-17T11:31:23.064Z,2.10
2022-11-17T11:34:08.677Z,1.63
2022-11-17T11:36:54.032Z,2.05
2022-11-17T11:40:35.787Z,2.50
2022-11-17T11:46:35.774Z,3.10
2022-11-17T11:52:46.719Z,2.60
2022-11-17T11:58:22.750Z,3.17
2022-11-17T12:00:59.845Z,2.50
2022-11-17T12:03:34.752Z,2.33
2022-11-17T12:09:20.777Z,2.38
2022-11-17T12:18:38.863Z,2.72
2022-11-17T12:28:38.810Z,2.35
2022-11-17T12:32:03.039Z,2.92
2022-11-17T12:34:36.874Z,2.33
2022-11-17T12:40:29.242Z,2.30
2022-11-17T12:46:25.098Z,2.97
2022-11-17T12:49:07.790Z,3.13
2022-11-17T13:02:56.270Z,3.10
2022-11-17T13:06:34.445Z,3.00
2022-11-17T13:09:33.950Z,2.53
2022-11-17T13:12:31.536Z,2.53
2022-11-17T13:15:07.227Z,2.92
2022-11-17T13:20:34.334Z,2.45
2022-11-17T13:23:20.531Z,2.88
2022-11-17T13:28:32.689Z,2.70
2022-11-17T13:33:42.099Z,2.22
2022-11-17T13:36:19.901Z,2.47
2022-11-17T13:38:50.187Z,2.30
2022-11-17T13:41:21.989Z,2.80
2022-11-17T13:43:53.216Z,2.50
2022-11-17T13:46:20.653Z,2.70
2022-11-17T13:48:49.520Z,2.70
2022-11-17T13:54:19.711Z,2.50
2022-11-17T13:56:46.385Z,2.20
2022-11-17T13:59:48.934Z,2.30
2022-11-17T14:05:15.319Z,2.28
2022-11-17T14:10:30.692Z,2.60
2022-11-17T14:17:40.839Z,2.10
2022-11-17T14:20:34.231Z,2.10
2022-11-17T14:23:14.050Z,2.45
2022-11-17T14:28:27.751Z,2.33
2022-11-17T14:30:56.290Z,2.38
2022-11-17T14:33:29.897Z,2.83
2022-11-17T14:38:52.957Z,2.50
2022-11-17T14:41:20.315Z,2.42
2022-11-17T14:43:47.838Z,2.65
2022-11-17T14:46:44.058Z,2.47
2022-11-17T14:49:10.968Z,2.20
2022-11-17T14:52:02.756Z,2.45
2022-11-17T14:54:29.442Z,2.30
2022-11-17T14:56:56.179Z,2.15
2022-11-17T14:59:43.134Z,2.50
2022-11-17T15:02:26.387Z,2.17
2022-11-17T15:04:53.688Z,2.30
2022-11-17T15:07:27.862Z,2.28
2022-11-17T15:10:27.413Z,2.42
2022-11-17T15:12:54.140Z,2.33
2022-11-17T15:15:27.094Z,2.20
2022-11-17T15:17:54.295Z,1.80
2022-11-17T15:20:24.229Z,1.98
2022-11-17T15:22:50.929Z,2.50
2022-11-17T15:25:17.745Z,2.28
2022-11-17T15:27:44.501Z,2.20
2022-11-17T15:30:11.711Z,2.10
2022-11-17T15:32:38.446Z,2.50
2022-11-17T15:35:06.395Z,2.13
2022-11-17T15:40:20.120Z,2.38
2022-11-17T15:42:53.370Z,1.80
2022-11-17T15:45:23.322Z,2.05
2022-11-17T15:47:52.348Z,2.42
2022-11-17T15:50:19.652Z,2.20
2022-11-17T15:53:03.572Z,1.80
2022-11-17T15:55:30.993Z,2.40
2022-11-17T15:58:06.876Z,2.00
2022-11-17T16:00:33.963Z,2.13
2022-11-17T16:03:03.901Z,2.13
2022-11-17T16:05:30.703Z,2.60
2022-11-17T16:07:57.661Z,2.47
2022-11-17T16:13:27.204Z,2.58
2022-11-17T16:15:54.477Z,2.92
2022-11-17T16:18:22.018Z,2.53
2022-11-17T16:21:39.701Z,2.70
2022-11-17T16:24:08.076Z,2.53
2022-11-17T16:26:35.947Z,2.92
2022-11-17T16:29:50.416Z,2.80
2022-11-17T16:32:17.596Z,3.00
2022-11-17T16:34:50.516Z,2.55
2022-11-17T16:37:17.418Z,3.10
2022-11-17T16:40:57.380Z,3.47
2022-11-17T16:50:05.565Z,2.80
2022-11-17T16:51:01.281Z,2.58
2022-11-17T16:52:34.907Z,2.35
2022-11-17T16:55:04.831Z,2.70
2022-11-17T16:57:39.654Z,2.85
2022-11-17T17:00:21.804Z,2.88
2022-11-17T17:02:55.046Z,3.10
2022-11-17T17:05:21.893Z,2.80
2022-11-17T17:07:51.873Z,2.63
2022-11-17T17:10:18.644Z,2.60
2022-11-17T17:12:45.400Z,2.50
2022-11-17T17:15:15.108Z,2.50
2022-11-17T17:17:41.878Z,3.63
2022-11-17T17:26:17.589Z,3.90
2022-11-17T17:29:06.364Z,3.92
2022-11-17T17:31:38.477Z,3.72
2022-11-17T17:34:12.866Z,3.33
2022-11-17T17:36:45.648Z,4.18
2022-11-17T17:43:23.500Z,3.60
2022-11-17T17:55:24.121Z,3.72
2022-11-17T17:58:37.807Z,3.08
2022-11-17T18:07:07.017Z,3.53
2022-11-17T18:18:56.678Z,3.40
2022-11-17T18:24:19.493Z,3.60
2022-11-17T18:27:10.581Z,3.60
2022-11-17T18:35:06.632Z,3.30
2022-11-17T18:37:41.565Z,3.30
2022-11-17T18:43:25.371Z,3.25
2022-11-17T18:46:32.262Z,2.83
2022-11-17T18:49:22.746Z,3.40
2022-11-17T19:02:04.253Z,3.28
2022-11-17T19:04:31.162Z,3.10
2022-11-17T19:07:23.800Z,2.97
2022-11-17T19:09:51.655Z,3.00
2022-11-17T19:12:20.460Z,3.08
2022-11-17T19:23:52.404Z,3.30
2022-11-17T19:26:21.988Z,3.40
2022-11-17T19:28:48.990Z,3.00
2022-11-17T19:31:18.638Z,3.28
2022-11-17T19:34:20.975Z,3.72
2022-11-17T19:36:59.973Z,3.03
2022-11-17T19:43:03.936Z,4.43
2022-11-17T19:45:30.971Z,3.03
2022-11-17T19:48:06.808Z,2.92
2022-11-17T19:50:33.775Z,2.80
2022-11-17T19:53:00.959Z,3.10
2022-11-17T19:55:27.805Z,2.88
2022-11-17T19:57:54.560Z,3.10
2022-11-17T20:00:21.459Z,2.50
2022-11-17T20:02:48.222Z,2.83
2022-11-17T20:05:21.239Z,2.80
2022-11-17T20:11:07.949Z,2.80
2022-11-17T20:13:35.274Z,2.97
2022-11-17T20:20:15.171Z,2.53
2022-11-17T20:25:25.963Z,2.80
2022-11-17T20:28:53.082Z,2.70
2022-11-17T20:31:22.061Z,3.33
2022-11-17T20:33:49.475Z,3.10
2022-11-17T20:37:00.189Z,3.13
2022-11-17T20:39:27.093Z,2.92
2022-11-17T20:41:56.641Z,2.63
2022-11-17T20:44:32.634Z,3.00
2022-11-17T20:46:59.722Z,3.28
2022-11-17T20:49:28.241Z,3.00
2022-11-17T20:51:59.832Z,3.35
2022-11-17T20:54:26.805Z,2.42
2022-11-17T20:57:16.587Z,2.88
2022-11-17T20:59:43.996Z,3.08
2022-11-17T21:02:14.819Z,2.63
2022-11-17T21:04:41.930Z,2.88
2022-11-17T21:18:22.938Z,4.85
2022-11-17T21:20:49.870Z,4.63
2022-11-17T21:23:28.003Z,5.30
2022-11-17T21:25:57.569Z,5.00
2022-11-17T21:28:37.019Z,4.63
2022-11-17T21:31:18.098Z,4.63
2022-11-17T21:37:31.968Z,4.18
2022-11-17T21:40:05.676Z,4.18
2022-11-17T21:42:36.331Z,4.07
2022-11-17T21:45:03.952Z,4.15
2022-11-17T21:47:46.014Z,4.18
2022-11-17T21:57:41.486Z,3.97
2022-11-17T22:02:56.169Z,5.53
2022-11-17T22:12:36.119Z,4.15
2022-11-17T22:17:34.673Z,4.40
2022-11-17T22:20:01.821Z,5.03
2022-11-17T22:22:49.564Z,5.50
2022-11-17T22:25:44.905Z,5.45
2022-11-17T22:32:26.479Z,5.97
2022-11-17T22:47:14.554Z,6.38
2022-11-17T22:52:18.182Z,6.68
2022-11-17T22:54:45.346Z,5.53
2022-11-17T23:06:56.144Z,6.43
2022-11-17T23:09:23.627Z,5.72
2022-11-17T23:11:54.256Z,6.15
2022-11-17T23:17:54.205Z,6.40
2022-11-17T23:20:28.868Z,6.25
2022-11-17T23:22:56.219Z,6.35
2022-11-17T23:26:04.057Z,6.60
2022-11-17T23:28:34.151Z,6.05
2022-11-17T23:31:05.840Z,6.43
2022-11-17T23:33:34.880Z,6.35
2022-11-17T23:36:07.468Z,6.60
2022-11-17T23:38:34.920Z,6.25
2022-11-17T23:44:47.885Z,6.65
2022-11-17T23:47:15.119Z,6.18
2022-11-17T23:53:15.918Z,5.50
